sensor_id;sensor_type;location;lat;lon;timestamp;pressure;altitude;pressure_sealevel;temperature;humidity
79589;BME280;69067;51.930;4.492;2024-01-30T00:02:12;102475.25;;;23.67;35.11
79589;BME280;69067;51.930;4.492;2024-01-30T00:04:38;102467.44;;;23.64;34.40
79589;BME280;69067;51.930;4.492;2024-01-30T00:07:04;102470.34;;;23.70;34.54
79589;BME280;69067;51.930;4.492;2024-01-30T00:09:29;102472.53;;;23.83;33.82
79589;BME280;69067;51.930;4.492;2024-01-30T00:11:56;102468.13;;;23.74;34.50
79589;BME280;69067;51.930;4.492;2024-01-30T00:14:22;102459.63;;;23.69;34.70
79589;BME280;69067;51.930;4.492;2024-01-30T00:16:48;102481.72;;;23.74;34.50
79589;BME280;69067;51.930;4.492;2024-01-30T00:19:14;102466.25;;;23.66;34.74
79589;BME280;69067;51.930;4.492;2024-01-30T00:21:40;102468.63;;;23.69;34.53
79589;BME280;69067;51.930;4.492;2024-01-30T00:24:06;102451.31;;;23.70;34.58
79589;BME280;69067;51.930;4.492;2024-01-30T00:26:32;102437.69;;;23.70;34.34
79589;BME280;69067;51.930;4.492;2024-01-30T00:28:57;102438.72;;;23.69;33.81
79589;BME280;69067;51.930;4.492;2024-01-30T00:31:24;102444.00;;;23.71;34.14
79589;BME280;69067;51.930;4.492;2024-01-30T00:33:50;102433.97;;;23.71;34.23
79589;BME280;69067;51.930;4.492;2024-01-30T00:36:15;102438.34;;;23.72;34.68
79589;BME280;69067;51.930;4.492;2024-01-30T00:38:41;102435.84;;;23.71;34.41
79589;BME280;69067;51.930;4.492;2024-01-30T00:41:08;102436.84;;;23.70;34.23
79589;BME280;69067;51.930;4.492;2024-01-30T00:43:35;102435.63;;;23.72;34.67
79589;BME280;69067;51.930;4.492;2024-01-30T00:46:01;102447.72;;;23.70;34.44
79589;BME280;69067;51.930;4.492;2024-01-30T00:48:27;102451.63;;;23.67;34.09
79589;BME280;69067;51.930;4.492;2024-01-30T00:50:53;102451.31;;;23.70;34.71
79589;BME280;69067;51.930;4.492;2024-01-30T00:53:19;102448.22;;;23.65;34.72
79589;BME280;69067;51.930;4.492;2024-01-30T00:55:44;102452.63;;;23.66;34.70
79589;BME280;69067;51.930;4.492;2024-01-30T00:58:10;102448.06;;;23.67;34.49
79589;BME280;69067;51.930;4.492;2024-01-30T01:00:35;102457.75;;;23.69;34.75
79589;BME280;69067;51.930;4.492;2024-01-30T01:03:01;102444.47;;;23.66;34.72
79589;BME280;69067;51.930;4.492;2024-01-30T01:05:27;102434.28;;;23.68;34.60
79589;BME280;69067;51.930;4.492;2024-01-30T01:07:53;102443.78;;;23.72;34.67
79589;BME280;69067;51.930;4.492;2024-01-30T01:10:19;102435.31;;;23.67;34.63
79589;BME280;69067;51.930;4.492;2024-01-30T01:12:45;102427.16;;;23.67;34.49
79589;BME280;69067;51.930;4.492;2024-01-30T01:15:11;102446.50;;;23.72;34.16
79589;BME280;69067;51.930;4.492;2024-01-30T01:17:38;102430.88;;;23.66;34.82
79589;BME280;69067;51.930;4.492;2024-01-30T01:20:05;102442.44;;;23.68;34.60
79589;BME280;69067;51.930;4.492;2024-01-30T01:22:33;102440.25;;;23.72;34.17
79589;BME280;69067;51.930;4.492;2024-01-30T01:25:02;102442.97;;;23.72;34.36
79589;BME280;69067;51.930;4.492;2024-01-30T01:27:28;102419.00;;;23.67;34.61
79589;BME280;69067;51.930;4.492;2024-01-30T01:29:53;102433.28;;;23.69;33.99
79589;BME280;69067;51.930;4.492;2024-01-30T01:32:19;102440.41;;;23.70;34.52
79589;BME280;69067;51.930;4.492;2024-01-30T01:34:45;102420.84;;;23.67;34.77
79589;BME280;69067;51.930;4.492;2024-01-30T01:37:11;102409.50;;;23.71;34.68
79589;BME280;69067;51.930;4.492;2024-01-30T01:39:37;102405.91;;;23.71;33.81
79589;BME280;69067;51.930;4.492;2024-01-30T01:42:03;102419.00;;;23.67;34.17
79589;BME280;69067;51.930;4.492;2024-01-30T01:44:29;102434.97;;;23.70;34.50
79589;BME280;69067;51.930;4.492;2024-01-30T01:46:56;102434.97;;;23.70;34.36
79589;BME280;69067;51.930;4.492;2024-01-30T01:49:27;102430.56;;;23.69;34.07
79589;BME280;69067;51.930;4.492;2024-01-30T01:51:55;102423.94;;;23.64;34.72
79589;BME280;69067;51.930;4.492;2024-01-30T01:54:25;102434.97;;;23.70;34.70
79589;BME280;69067;51.930;4.492;2024-01-30T01:56:53;102423.41;;;23.68;34.34
79589;BME280;69067;51.930;4.492;2024-01-30T01:59:19;102412.22;;;23.71;34.22
79589;BME280;69067;51.930;4.492;2024-01-30T02:01:46;102420.84;;;23.67;34.38
79589;BME280;69067;51.930;4.492;2024-01-30T02:04:15;102420.38;;;23.71;34.26
79589;BME280;69067;51.930;4.492;2024-01-30T02:06:43;102411.34;;;23.71;34.56
79589;BME280;69067;51.930;4.492;2024-01-30T02:09:09;102407.41;;;23.89;34.46
79589;BME280;69067;51.930;4.492;2024-01-30T02:11:35;102413.72;;;23.74;34.75
79589;BME280;69067;51.930;4.492;2024-01-30T02:14:05;102400.47;;;23.63;34.73
79589;BME280;69067;51.930;4.492;2024-01-30T02:16:31;102398.78;;;23.70;34.74
79589;BME280;69067;51.930;4.492;2024-01-30T02:18:57;102407.41;;;23.65;34.53
79589;BME280;69067;51.930;4.492;2024-01-30T02:21:23;102404.38;;;23.68;34.58
79589;BME280;69067;51.930;4.492;2024-01-30T02:23:50;102400.13;;;23.66;34.46
79589;BME280;69067;51.930;4.492;2024-01-30T02:26:16;102416.97;;;23.69;34.66
79589;BME280;69067;51.930;4.492;2024-01-30T02:28:42;102423.25;;;23.70;34.28
79589;BME280;69067;51.930;4.492;2024-01-30T02:31:07;102409.31;;;23.65;34.36
79589;BME280;69067;51.930;4.492;2024-01-30T02:33:33;102416.97;;;23.69;34.94
79589;BME280;69067;51.930;4.492;2024-01-30T02:35:59;102405.38;;;23.67;35.02
79589;BME280;69067;51.930;4.492;2024-01-30T02:38:25;102407.94;;;23.69;34.87
79589;BME280;69067;51.930;4.492;2024-01-30T02:40:52;102409.81;;;23.68;34.73
79589;BME280;69067;51.930;4.492;2024-01-30T02:43:18;102409.50;;;23.71;35.01
79589;BME280;69067;51.930;4.492;2024-01-30T02:45:43;102399.78;;;23.69;34.43
79589;BME280;69067;51.930;4.492;2024-01-30T02:48:09;102385.00;;;23.63;35.14
79589;BME280;69067;51.930;4.492;2024-01-30T02:50:35;102385.00;;;23.63;35.01
79589;BME280;69067;51.930;4.492;2024-01-30T02:53:00;102388.22;;;23.67;35.38
79589;BME280;69067;51.930;4.492;2024-01-30T02:55:26;102390.94;;;23.67;34.56
79589;BME280;69067;51.930;4.492;2024-01-30T02:57:52;102384.31;;;23.69;34.74
79589;BME280;69067;51.930;4.492;2024-01-30T03:00:19;102370.03;;;23.67;34.82
79589;BME280;69067;51.930;4.492;2024-01-30T03:02:45;102370.03;;;23.67;35.28
79589;BME280;69067;51.930;4.492;2024-01-30T03:05:11;102383.47;;;23.69;35.06
79589;BME280;69067;51.930;4.492;2024-01-30T03:07:36;102378.03;;;23.69;35.11
79589;BME280;69067;51.930;4.492;2024-01-30T03:10:04;102386.03;;;23.70;35.72
79589;BME280;69067;51.930;4.492;2024-01-30T03:12:30;102381.59;;;23.69;35.52
79589;BME280;69067;51.930;4.492;2024-01-30T03:14:56;102386.88;;;23.71;35.20
79589;BME280;69067;51.930;4.492;2024-01-30T03:17:21;102385.16;;;23.70;34.99
79589;BME280;69067;51.930;4.492;2024-01-30T03:19:47;102375.16;;;23.70;34.87
79589;BME280;69067;51.930;4.492;2024-01-30T03:22:13;102386.03;;;23.70;35.10
79589;BME280;69067;51.930;4.492;2024-01-30T03:24:38;102375.31;;;23.69;35.46
79589;BME280;69067;51.930;4.492;2024-01-30T03:27:04;102380.59;;;23.70;34.98
79589;BME280;69067;51.930;4.492;2024-01-30T03:29:30;102379.22;;;23.66;35.72
79589;BME280;69067;51.930;4.492;2024-01-30T03:31:55;102387.56;;;23.65;35.04
79589;BME280;69067;51.930;4.492;2024-01-30T03:34:21;102383.63;;;23.67;35.33
79589;BME280;69067;51.930;4.492;2024-01-30T03:36:46;102386.03;;;23.70;35.33
79589;BME280;69067;51.930;4.492;2024-01-30T03:39:12;102383.97;;;23.72;35.03
79589;BME280;69067;51.930;4.492;2024-01-30T03:41:38;102373.28;;;23.71;35.25
79589;BME280;69067;51.930;4.492;2024-01-30T03:44:03;102383.97;;;23.72;35.01
79589;BME280;69067;51.930;4.492;2024-01-30T03:46:29;102386.03;;;23.70;35.24
79589;BME280;69067;51.930;4.492;2024-01-30T03:48:55;102379.72;;;23.70;35.53
79589;BME280;69067;51.930;4.492;2024-01-30T03:51:20;102376.50;;;23.66;35.09
79589;BME280;69067;51.930;4.492;2024-01-30T03:53:46;102373.97;;;23.65;34.94
79589;BME280;69067;51.930;4.492;2024-01-30T03:56:12;102372.94;;;23.58;35.27
79589;BME280;69067;51.930;4.492;2024-01-30T03:58:41;102360.53;;;23.55;35.01
79589;BME280;69067;51.930;4.492;2024-01-30T04:01:07;102359.34;;;23.58;35.05
79589;BME280;69067;51.930;4.492;2024-01-30T04:03:33;102362.91;;;23.58;35.17
79589;BME280;69067;51.930;4.492;2024-01-30T04:05:58;102369.19;;;23.59;35.24
79589;BME280;69067;51.930;4.492;2024-01-30T04:08:24;102367.50;;;23.58;34.99
79589;BME280;69067;51.930;4.492;2024-01-30T04:10:50;102372.25;;;23.64;34.85
79589;BME280;69067;51.930;4.492;2024-01-30T04:13:16;102368.53;;;23.57;35.23
79589;BME280;69067;51.930;4.492;2024-01-30T04:15:41;102373.13;;;23.56;35.50
79589;BME280;69067;51.930;4.492;2024-01-30T04:18:07;102365.97;;;23.55;35.98
79589;BME280;69067;51.930;4.492;2024-01-30T04:20:33;102365.97;;;23.55;35.65
79589;BME280;69067;51.930;4.492;2024-01-30T04:22:59;102355.09;;;23.55;35.81
79589;BME280;69067;51.930;4.492;2024-01-30T04:25:25;102355.59;;;23.59;35.28
79589;BME280;69067;51.930;4.492;2024-01-30T04:27:51;102358.16;;;23.60;35.62
79589;BME280;69067;51.930;4.492;2024-01-30T04:30:16;102360.19;;;23.58;35.61
79589;BME280;69067;51.930;4.492;2024-01-30T04:32:43;102360.88;;;23.60;35.61
79589;BME280;69067;51.930;4.492;2024-01-30T04:35:08;102349.81;;;23.62;35.76
79589;BME280;69067;51.930;4.492;2024-01-30T04:37:34;102340.13;;;23.59;35.79
79589;BME280;69067;51.930;4.492;2024-01-30T04:40:00;102346.25;;;23.61;34.84
79589;BME280;69067;51.930;4.492;2024-01-30T04:42:26;102335.53;;;23.60;35.75
79589;BME280;69067;51.930;4.492;2024-01-30T04:44:51;102340.31;;;23.58;35.33
79589;BME280;69067;51.930;4.492;2024-01-30T04:47:17;102334.88;;;23.58;35.17
79589;BME280;69067;51.930;4.492;2024-01-30T04:49:43;102346.56;;;23.58;35.22
79589;BME280;69067;51.930;4.492;2024-01-30T04:52:09;102344.06;;;23.57;35.74
79589;BME280;69067;51.930;4.492;2024-01-30T04:54:35;102349.13;;;23.60;35.27
79589;BME280;69067;51.930;4.492;2024-01-30T04:57:01;102346.56;;;23.58;35.26
79589;BME280;69067;51.930;4.492;2024-01-30T04:59:28;102353.72;;;23.59;35.09
79589;BME280;69067;51.930;4.492;2024-01-30T05:01:53;102338.09;;;23.53;35.58
79589;BME280;69067;51.930;4.492;2024-01-30T05:04:19;102344.22;;;23.55;34.93
79589;BME280;69067;51.930;4.492;2024-01-30T05:06:45;102352.22;;;23.57;35.44
79589;BME280;69067;51.930;4.492;2024-01-30T05:09:11;102358.16;;;23.60;34.93
79589;BME280;69067;51.930;4.492;2024-01-30T05:11:41;102355.59;;;23.59;34.77
79589;BME280;69067;51.930;4.492;2024-01-30T05:14:07;102354.75;;;23.58;35.23
79589;BME280;69067;51.930;4.492;2024-01-30T05:16:34;102350.84;;;23.61;35.49
79589;BME280;69067;51.930;4.492;2024-01-30T05:19:00;102343.03;;;23.58;35.98
79589;BME280;69067;51.930;4.492;2024-01-30T05:21:25;102343.22;;;23.56;35.77
79589;BME280;69067;51.930;4.492;2024-01-30T05:23:51;102349.50;;;23.57;35.51
79589;BME280;69067;51.930;4.492;2024-01-30T05:26:17;102353.72;;;23.59;35.54
79589;BME280;69067;51.930;4.492;2024-01-30T05:28:43;102358.50;;;23.57;36.36
79589;BME280;69067;51.930;4.492;2024-01-30T05:31:12;102345.94;;;23.56;35.12
79589;BME280;69067;51.930;4.492;2024-01-30T05:33:38;102349.66;;;23.55;35.30
79589;BME280;69067;51.930;4.492;2024-01-30T05:36:03;102355.25;;;23.53;35.63
79589;BME280;69067;51.930;4.492;2024-01-30T05:38:29;102349.81;;;23.53;35.79
79589;BME280;69067;51.930;4.492;2024-01-30T05:40:58;102346.25;;;23.53;35.68
79589;BME280;69067;51.930;4.492;2024-01-30T05:43:24;102346.25;;;23.53;35.91
79589;BME280;69067;51.930;4.492;2024-01-30T05:45:51;102347.97;;;23.54;35.30
79589;BME280;69067;51.930;4.492;2024-01-30T05:48:18;102353.56;;;23.52;36.11
79589;BME280;69067;51.930;4.492;2024-01-30T05:50:43;102353.06;;;23.49;35.43
79589;BME280;69067;51.930;4.492;2024-01-30T05:53:10;102362.56;;;23.53;35.69
79589;BME280;69067;51.930;4.492;2024-01-30T05:55:36;102361.06;;;23.50;35.81
79589;BME280;69067;51.930;4.492;2024-01-30T05:58:02;102361.72;;;23.52;35.35
79589;BME280;69067;51.930;4.492;2024-01-30T06:00:28;102357.47;;;23.58;35.81
79589;BME280;69067;51.930;4.492;2024-01-30T06:02:53;102361.72;;;23.52;35.75
79589;BME280;69067;51.930;4.492;2024-01-30T06:05:19;102365.81;;;23.57;36.00
79589;BME280;69067;51.930;4.492;2024-01-30T06:07:45;102363.25;;;23.55;35.65
79589;BME280;69067;51.930;4.492;2024-01-30T06:10:10;102367.00;;;23.70;35.08
79589;BME280;69067;51.930;4.492;2024-01-30T06:12:36;102364.97;;;23.56;35.36
79589;BME280;69067;51.930;4.492;2024-01-30T06:15:03;102356.63;;;23.49;35.50
79589;BME280;69067;51.930;4.492;2024-01-30T06:17:29;102366.81;;;23.55;35.64
79589;BME280;69067;51.930;4.492;2024-01-30T06:19:55;102366.66;;;23.57;35.52
79589;BME280;69067;51.930;4.492;2024-01-30T06:22:21;102364.09;;;23.55;35.74
79589;BME280;69067;51.930;4.492;2024-01-30T06:24:46;102355.63;;;23.50;35.62
79589;BME280;69067;51.930;4.492;2024-01-30T06:27:14;102365.28;;;23.53;36.19
79589;BME280;69067;51.930;4.492;2024-01-30T06:29:43;102365.13;;;23.54;35.99
79589;BME280;69067;51.930;4.492;2024-01-30T06:32:08;102363.41;;;23.53;35.87
79589;BME280;69067;51.930;4.492;2024-01-30T06:34:34;102365.81;;;23.57;36.23
79589;BME280;69067;51.930;4.492;2024-01-30T06:37:00;102373.13;;;23.56;35.73
79589;BME280;69067;51.930;4.492;2024-01-30T06:39:28;102364.28;;;23.54;35.84
79589;BME280;69067;51.930;4.492;2024-01-30T06:41:54;102372.44;;;23.54;35.51
79589;BME280;69067;51.930;4.492;2024-01-30T06:44:20;102376.84;;;23.55;35.39
79589;BME280;69067;51.930;4.492;2024-01-30T06:46:45;102366.31;;;23.52;35.92
79589;BME280;69067;51.930;4.492;2024-01-30T06:49:11;102370.06;;;23.51;35.85
79589;BME280;69067;51.930;4.492;2024-01-30T06:51:37;102372.59;;;23.52;35.59
79589;BME280;69067;51.930;4.492;2024-01-30T06:54:03;102380.25;;;23.49;35.53
79589;BME280;69067;51.930;4.492;2024-01-30T06:56:29;102380.25;;;23.57;36.19
79589;BME280;69067;51.930;4.492;2024-01-30T06:58:55;102383.84;;;23.58;36.24
79589;BME280;69067;51.930;4.492;2024-01-30T07:01:20;102374.13;;;23.55;35.52
79589;BME280;69067;51.930;4.492;2024-01-30T07:03:46;102384.66;;;23.58;35.25
79589;BME280;69067;51.930;4.492;2024-01-30T07:06:12;102377.53;;;23.57;36.12
79589;BME280;69067;51.930;4.492;2024-01-30T07:08:38;102385.50;;;23.59;35.25
79589;BME280;69067;51.930;4.492;2024-01-30T07:11:07;102385.34;;;23.60;36.04
79589;BME280;69067;51.930;4.492;2024-01-30T07:13:34;102387.38;;;23.58;35.89
79589;BME280;69067;51.930;4.492;2024-01-30T07:16:00;102389.44;;;23.56;35.50
79589;BME280;69067;51.930;4.492;2024-01-30T07:18:26;102384.31;;;23.53;35.88
79589;BME280;69067;51.930;4.492;2024-01-30T07:20:52;102399.28;;;23.57;35.60
79589;BME280;69067;51.930;4.492;2024-01-30T07:23:17;102398.25;;;23.58;35.75
79589;BME280;69067;51.930;4.492;2024-01-30T07:25:46;102400.31;;;23.56;35.47
79589;BME280;69067;51.930;4.492;2024-01-30T07:28:15;102404.91;;;23.55;35.15
79589;BME280;69067;51.930;4.492;2024-01-30T07:30:43;102422.72;;;23.58;35.66
79589;BME280;69067;51.930;4.492;2024-01-30T07:33:09;102410.16;;;23.57;35.93
79589;BME280;69067;51.930;4.492;2024-01-30T07:35:35;102417.47;;;23.57;35.61
79589;BME280;69067;51.930;4.492;2024-01-30T07:38:01;102426.81;;;23.62;35.19
79589;BME280;69067;51.930;4.492;2024-01-30T07:40:27;102412.22;;;23.63;35.20
79589;BME280;69067;51.930;4.492;2024-01-30T07:42:53;102416.09;;;23.61;35.78
79589;BME280;69067;51.930;4.492;2024-01-30T07:45:19;102422.41;;;23.61;34.93
79589;BME280;69067;51.930;4.492;2024-01-30T07:47:50;102427.84;;;23.61;35.18
79589;BME280;69067;51.930;4.492;2024-01-30T07:50:16;102419.84;;;23.60;35.33
79589;BME280;69067;51.930;4.492;2024-01-30T07:52:42;102429.69;;;23.61;35.81
79589;BME280;69067;51.930;4.492;2024-01-30T07:55:08;102429.53;;;23.62;35.59
79589;BME280;69067;51.930;4.492;2024-01-30T07:57:34;102422.72;;;23.58;35.43
79589;BME280;69067;51.930;4.492;2024-01-30T08:00:01;102427.16;;;23.59;35.73
79589;BME280;69067;51.930;4.492;2024-01-30T08:02:28;102439.56;;;23.62;35.27
79589;BME280;69067;51.930;4.492;2024-01-30T08:04:53;102431.25;;;23.55;35.08
79589;BME280;69067;51.930;4.492;2024-01-30T08:07:19;102440.75;;;23.59;35.61
79589;BME280;69067;51.930;4.492;2024-01-30T08:09:47;102437.84;;;23.61;35.43
79589;BME280;69067;51.930;4.492;2024-01-30T08:12:13;102449.44;;;23.63;35.41
79589;BME280;69067;51.930;4.492;2024-01-30T08:14:39;102456.91;;;23.61;35.56
79589;BME280;69067;51.930;4.492;2024-01-30T08:17:06;102452.31;;;23.61;35.83
79589;BME280;69067;51.930;4.492;2024-01-30T08:19:33;102454.34;;;23.59;35.23
79589;BME280;69067;51.930;4.492;2024-01-30T08:21:59;102464.19;;;23.60;35.22
79589;BME280;69067;51.930;4.492;2024-01-30T08:24:25;102454.69;;;23.56;35.28
79589;BME280;69067;51.930;4.492;2024-01-30T08:26:50;102465.22;;;23.59;35.13
79589;BME280;69067;51.930;4.492;2024-01-30T08:29:16;102463.19;;;23.61;35.76
79589;BME280;69067;51.930;4.492;2024-01-30T08:31:42;102465.22;;;23.59;35.63
79589;BME280;69067;51.930;4.492;2024-01-30T08:34:08;102458.94;;;23.59;35.55
79589;BME280;69067;51.930;4.492;2024-01-30T08:36:33;102447.38;;;23.57;35.61
79589;BME280;69067;51.930;4.492;2024-01-30T08:38:59;102461.47;;;23.60;35.69
79589;BME280;69067;51.930;4.492;2024-01-30T08:41:25;102460.13;;;23.56;35.16
79589;BME280;69067;51.930;4.492;2024-01-30T08:43:52;102453.69;;;23.57;35.82
79589;BME280;69067;51.930;4.492;2024-01-30T08:46:20;102451.81;;;23.58;35.80
79589;BME280;69067;51.930;4.492;2024-01-30T08:48:46;102457.75;;;23.61;36.03
79589;BME280;69067;51.930;4.492;2024-01-30T08:51:13;102455.19;;;23.60;36.07
79589;BME280;69067;51.930;4.492;2024-01-30T08:53:40;102456.19;;;23.59;35.99
79589;BME280;69067;51.930;4.492;2024-01-30T08:56:06;102456.91;;;23.61;35.64
79589;BME280;69067;51.930;4.492;2024-01-30T08:58:32;102459.63;;;23.61;35.70
79589;BME280;69067;51.930;4.492;2024-01-30T09:00:58;102464.19;;;23.60;35.58
79589;BME280;69067;51.930;4.492;2024-01-30T09:03:24;102468.63;;;23.61;35.16
79589;BME280;69067;51.930;4.492;2024-01-30T09:05:50;102458.06;;;23.58;34.77
79589;BME280;69067;51.930;4.492;2024-01-30T09:08:15;102468.31;;;23.64;34.94
79589;BME280;69067;51.930;4.492;2024-01-30T09:10:41;102470.50;;;23.61;35.04
79589;BME280;69067;51.930;4.492;2024-01-30T09:13:07;102460.13;;;23.56;35.00
79589;BME280;69067;51.930;4.492;2024-01-30T09:15:32;102483.25;;;23.60;35.16
79589;BME280;69067;51.930;4.492;2024-01-30T09:17:58;102468.28;;;23.56;35.10
79589;BME280;69067;51.930;4.492;2024-01-30T09:20:24;102478.31;;;23.55;35.40
79589;BME280;69067;51.930;4.492;2024-01-30T09:22:50;102493.09;;;23.61;35.48
79589;BME280;69067;51.930;4.492;2024-01-30T09:25:15;102492.09;;;23.62;35.31
79589;BME280;69067;51.930;4.492;2024-01-30T09:27:41;102485.97;;;23.60;35.78
79589;BME280;69067;51.930;4.492;2024-01-30T09:30:07;102489.69;;;23.59;35.14
79589;BME280;69067;51.930;4.492;2024-01-30T09:32:33;102486.97;;;23.59;34.73
79589;BME280;69067;51.930;4.492;2024-01-30T09:34:59;102489.88;;;23.58;34.69
79589;BME280;69067;51.930;4.492;2024-01-30T09:37:25;102492.25;;;23.61;35.18
79589;BME280;69067;51.930;4.492;2024-01-30T09:39:50;102495.47;;;23.56;35.30
79589;BME280;69067;51.930;4.492;2024-01-30T09:44:54;102516.88;;;23.59;35.31
79589;BME280;69067;51.930;4.492;2024-01-30T09:47:20;102512.66;;;23.57;34.84
79589;BME280;69067;51.930;4.492;2024-01-30T09:49:46;102496.84;;;23.60;35.67
79589;BME280;69067;51.930;4.492;2024-01-30T09:52:13;102503.63;;;23.56;34.76
79589;BME280;69067;51.930;4.492;2024-01-30T09:54:40;102535.91;;;23.59;34.60
79589;BME280;69067;51.930;4.492;2024-01-30T09:57:07;102522.16;;;23.61;35.08
79589;BME280;69067;51.930;4.492;2024-01-30T09:59:33;102520.47;;;23.60;35.25
79589;BME280;69067;51.930;4.492;2024-01-30T10:02:00;102529.47;;;23.60;35.55
79589;BME280;69067;51.930;4.492;2024-01-30T10:04:26;102551.22;;;23.60;34.87
79589;BME280;69067;51.930;4.492;2024-01-30T10:06:51;102521.66;;;23.57;35.28
79589;BME280;69067;51.930;4.492;2024-01-30T10:09:17;102533.19;;;23.59;35.27
79589;BME280;69067;51.930;4.492;2024-01-30T10:11:43;102533.91;;;23.61;34.87
79589;BME280;69067;51.930;4.492;2024-01-30T10:14:09;102547.50;;;23.61;34.74
79589;BME280;69067;51.930;4.492;2024-01-30T10:16:35;102532.88;;;23.54;35.10
79589;BME280;69067;51.930;4.492;2024-01-30T10:19:01;102544.94;;;23.60;34.63
79589;BME280;69067;51.930;4.492;2024-01-30T10:21:26;102549.50;;;23.59;34.96
79589;BME280;69067;51.930;4.492;2024-01-30T10:23:52;102542.22;;;23.60;35.10
79589;BME280;69067;51.930;4.492;2024-01-30T10:26:18;102550.38;;;23.60;34.69
79589;BME280;69067;51.930;4.492;2024-01-30T10:28:44;102555.16;;;23.58;35.11
79589;BME280;69067;51.930;4.492;2024-01-30T10:31:10;102557.00;;;23.57;35.24
79589;BME280;69067;51.930;4.492;2024-01-30T10:33:36;102549.69;;;23.49;35.51
79589;BME280;69067;51.930;4.492;2024-01-30T10:36:04;102557.00;;;23.57;34.72
79589;BME280;69067;51.930;4.492;2024-01-30T10:38:31;102570.41;;;23.59;35.06
79589;BME280;69067;51.930;4.492;2024-01-30T10:41:01;102565.84;;;23.59;34.60
79589;BME280;69067;51.930;4.492;2024-01-30T10:43:32;102569.56;;;23.58;34.61
79589;BME280;69067;51.930;4.492;2024-01-30T10:46:10;102579.63;;;23.58;35.02
79589;BME280;69067;51.930;4.492;2024-01-30T10:48:43;102581.50;;;23.57;35.39
79589;BME280;69067;51.930;4.492;2024-01-30T10:51:14;102569.91;;;23.55;34.36
79589;BME280;69067;51.930;4.492;2024-01-30T10:53:41;102566.50;;;23.53;34.96
79589;BME280;69067;51.930;4.492;2024-01-30T10:56:10;102571.09;;;23.52;35.51
79589;BME280;69067;51.930;4.492;2024-01-30T10:58:37;102582.34;;;23.58;34.95
79589;BME280;69067;51.930;4.492;2024-01-30T11:01:05;102571.78;;;23.54;35.15
79589;BME280;69067;51.930;4.492;2024-01-30T11:03:34;102580.78;;;23.55;35.57
79589;BME280;69067;51.930;4.492;2024-01-30T11:06:02;102596.75;;;23.58;34.69
79589;BME280;69067;51.930;4.492;2024-01-30T11:08:32;102589.66;;;23.57;34.86
79589;BME280;69067;51.930;4.492;2024-01-30T11:10:58;102587.25;;;23.54;34.99
79589;BME280;69067;51.930;4.492;2024-01-30T11:13:31;102598.66;;;23.58;35.07
79589;BME280;69067;51.930;4.492;2024-01-30T11:16:00;102592.00;;;23.52;34.98
79589;BME280;69067;51.930;4.492;2024-01-30T11:18:30;102592.69;;;23.54;35.46
79589;BME280;69067;51.930;4.492;2024-01-30T11:20:58;102588.41;;;23.51;34.73
79589;BME280;69067;51.930;4.492;2024-01-30T11:23:27;102599.13;;;23.53;34.73
79589;BME280;69067;51.930;4.492;2024-01-30T11:25:54;102597.44;;;23.52;35.13
79589;BME280;69067;51.930;4.492;2024-01-30T11:28:21;102597.81;;;23.57;35.08
79589;BME280;69067;51.930;4.492;2024-01-30T11:30:48;102597.13;;;23.55;35.09
79589;BME280;69067;51.930;4.492;2024-01-30T11:33:28;102599.13;;;23.53;34.96
79589;BME280;69067;51.930;4.492;2024-01-30T11:35:58;102597.97;;;23.55;34.97
79589;BME280;69067;51.930;4.492;2024-01-30T11:38:28;102598.97;;;23.54;35.09
79589;BME280;69067;51.930;4.492;2024-01-30T11:40:55;102594.22;;;23.57;34.98
79589;BME280;69067;51.930;4.492;2024-01-30T11:43:22;102595.25;;;23.55;35.30
79589;BME280;69067;51.930;4.492;2024-01-30T11:45:49;102583.50;;;23.55;35.10
79589;BME280;69067;51.930;4.492;2024-01-30T11:48:15;102592.38;;;23.57;34.79
79589;BME280;69067;51.930;4.492;2024-01-30T11:50:41;102597.81;;;23.57;34.84
79589;BME280;69067;51.930;4.492;2024-01-30T11:53:07;102598.81;;;23.56;34.34
79589;BME280;69067;51.930;4.492;2024-01-30T11:55:33;102592.53;;;23.55;34.41
79589;BME280;69067;51.930;4.492;2024-01-30T11:57:59;102599.31;;;23.60;35.37
79589;BME280;69067;51.930;4.492;2024-01-30T12:00:25;102598.13;;;23.54;34.41
79589;BME280;69067;51.930;4.492;2024-01-30T12:02:53;102618.50;;;23.58;34.62
79589;BME280;69067;51.930;4.492;2024-01-30T12:05:24;102608.69;;;23.57;35.15
79589;BME280;69067;51.930;4.492;2024-01-30T12:07:51;102618.00;;;23.54;34.97
79589;BME280;69067;51.930;4.492;2024-01-30T12:10:17;102611.56;;;23.55;34.74
79589;BME280;69067;51.930;4.492;2024-01-30T12:12:49;102623.63;;;23.61;34.31
79589;BME280;69067;51.930;4.492;2024-01-30T12:15:16;102607.28;;;23.53;34.72
79589;BME280;69067;51.930;4.492;2024-01-30T12:17:42;102601.63;;;23.46;34.46
79589;BME280;69067;51.930;4.492;2024-01-30T12:20:11;102618.72;;;23.57;34.38
79589;BME280;69067;51.930;4.492;2024-01-30T12:22:40;102607.78;;;23.48;34.11
79589;BME280;69067;51.930;4.492;2024-01-30T12:25:15;102604.84;;;23.42;34.43
79589;BME280;69067;51.930;4.492;2024-01-30T12:27:47;102625.16;;;23.55;34.97
79589;BME280;69067;51.930;4.492;2024-01-30T12:30:19;102621.91;;;23.52;34.78
79589;BME280;69067;51.930;4.492;2024-01-30T12:32:47;102637.03;;;23.54;34.55
79589;BME280;69067;51.930;4.492;2024-01-30T12:35:17;102630.56;;;23.47;34.13
79589;BME280;69067;51.930;4.492;2024-01-30T12:37:45;102635.84;;;23.49;34.22
79589;BME280;69067;51.930;4.492;2024-01-30T12:40:13;102639.06;;;23.52;34.44
79589;BME280;69067;51.930;4.492;2024-01-30T12:42:40;102647.94;;;23.54;34.70
79589;BME280;69067;51.930;4.492;2024-01-30T12:45:11;102645.34;;;23.53;34.15
79589;BME280;69067;51.930;4.492;2024-01-30T12:47:37;102632.75;;;23.44;34.92
79589;BME280;69067;51.930;4.492;2024-01-30T12:50:03;102641.47;;;23.55;34.17